Terminal Aerodrome Forecast
Issued by NWS

Home | Current Version | Previous Version | Text Only | Print | Product List | Glossary On
Versions: 1 2 3 4 5 6 7 8 9 10 11 12 13 14 15 16 17 18 19 20 21 22 23 24 25 26 27 28 29 30
000
FTUS45 KGJT 152339
TAFHDN
TAF
KHDN 152339Z 1600/1624 32009KT P6SM FEW060 FEW100
     FM160600 10005KT P6SM FEW035 SCT180
     FM161400 11006KT P6SM FEW030 SCT250
     FM161800 31005KT P6SM FEW045 SCT100=

USA.gov is the U.S. government's official web portal to all federal, state and local government web resources and services.